sensor_id;sensor_type;location;lat;lon;timestamp;temperature;humidity
42095;DHT22;27753;55.724;37.612;2022-09-09T00:00:20;8.10;84.70
42095;DHT22;27753;55.724;37.612;2022-09-09T00:03:04;8.10;84.90
42095;DHT22;27753;55.724;37.612;2022-09-09T00:09:07;8.10;85.00
42095;DHT22;27753;55.724;37.612;2022-09-09T00:17:21;8.00;85.20
42095;DHT22;27753;55.724;37.612;2022-09-09T00:19:59;8.00;85.30
42095;DHT22;27753;55.724;37.612;2022-09-09T00:22:29;8.00;85.40
42095;DHT22;27753;55.724;37.612;2022-09-09T00:25:10;8.00;85.50
42095;DHT22;27753;55.724;37.612;2022-09-09T00:27:48;8.00;85.60
42095;DHT22;27753;55.724;37.612;2022-09-09T00:30:34;8.00;85.60
42095;DHT22;27753;55.724;37.612;2022-09-09T00:33:11;7.90;85.70
42095;DHT22;27753;55.724;37.612;2022-09-09T00:35:45;7.90;85.70
42095;DHT22;27753;55.724;37.612;2022-09-09T00:38:25;7.90;85.80
42095;DHT22;27753;55.724;37.612;2022-09-09T00:41:00;7.90;85.90
42095;DHT22;27753;55.724;37.612;2022-09-09T00:43:36;7.90;86.00
42095;DHT22;27753;55.724;37.612;2022-09-09T00:48:46;7.90;86.00
42095;DHT22;27753;55.724;37.612;2022-09-09T00:54:19;7.90;85.80
42095;DHT22;27753;55.724;37.612;2022-09-09T00:57:13;7.90;85.70
42095;DHT22;27753;55.724;37.612;2022-09-09T00:59:56;8.00;85.80
42095;DHT22;27753;55.724;37.612;2022-09-09T01:02:31;8.00;85.70
42095;DHT22;27753;55.724;37.612;2022-09-09T01:05:12;7.90;85.60
42095;DHT22;27753;55.724;37.612;2022-09-09T01:07:44;7.90;85.60
42095;DHT22;27753;55.724;37.612;2022-09-09T01:10:51;7.90;85.60
42095;DHT22;27753;55.724;37.612;2022-09-09T01:13:25;7.90;85.50
42095;DHT22;27753;55.724;37.612;2022-09-09T01:15:51;7.90;85.50
42095;DHT22;27753;55.724;37.612;2022-09-09T01:18:22;7.90;85.50
42095;DHT22;27753;55.724;37.612;2022-09-09T01:28:45;7.90;85.40
42095;DHT22;27753;55.724;37.612;2022-09-09T01:31:17;7.90;85.50
42095;DHT22;27753;55.724;37.612;2022-09-09T01:33:44;7.90;85.70
42095;DHT22;27753;55.724;37.612;2022-09-09T01:38:51;7.90;85.80
42095;DHT22;27753;55.724;37.612;2022-09-09T01:41:17;7.90;85.80
42095;DHT22;27753;55.724;37.612;2022-09-09T01:43:43;7.80;85.90
42095;DHT22;27753;55.724;37.612;2022-09-09T01:46:10;7.80;86.00
42095;DHT22;27753;55.724;37.612;2022-09-09T01:48:36;7.80;86.10
42095;DHT22;27753;55.724;37.612;2022-09-09T01:51:02;7.70;86.20
42095;DHT22;27753;55.724;37.612;2022-09-09T01:53:28;7.70;86.30
42095;DHT22;27753;55.724;37.612;2022-09-09T01:58:48;7.80;86.50
42095;DHT22;27753;55.724;37.612;2022-09-09T02:04:45;7.70;86.40
42095;DHT22;27753;55.724;37.612;2022-09-09T02:07:28;7.80;86.60
42095;DHT22;27753;55.724;37.612;2022-09-09T02:10:06;7.70;86.80
42095;DHT22;27753;55.724;37.612;2022-09-09T02:12:34;7.70;86.90
42095;DHT22;27753;55.724;37.612;2022-09-09T02:15:07;7.70;86.80
42095;DHT22;27753;55.724;37.612;2022-09-09T02:17:38;7.80;86.80
42095;DHT22;27753;55.724;37.612;2022-09-09T02:20:11;7.80;86.70
42095;DHT22;27753;55.724;37.612;2022-09-09T02:22:40;7.70;86.70
42095;DHT22;27753;55.724;37.612;2022-09-09T02:25:11;7.80;86.70
42095;DHT22;27753;55.724;37.612;2022-09-09T02:27:41;7.80;86.70
42095;DHT22;27753;55.724;37.612;2022-09-09T02:30:07;7.80;86.60
42095;DHT22;27753;55.724;37.612;2022-09-09T02:32:35;7.70;86.60
42095;DHT22;27753;55.724;37.612;2022-09-09T02:35:09;7.70;86.60
42095;DHT22;27753;55.724;37.612;2022-09-09T02:37:38;7.70;86.80
42095;DHT22;27753;55.724;37.612;2022-09-09T02:40:07;7.70;86.90
42095;DHT22;27753;55.724;37.612;2022-09-09T02:42:44;7.60;87.00
42095;DHT22;27753;55.724;37.612;2022-09-09T02:45:14;7.60;87.00
42095;DHT22;27753;55.724;37.612;2022-09-09T02:50:50;7.50;87.20
42095;DHT22;27753;55.724;37.612;2022-09-09T03:00:50;7.50;87.40
42095;DHT22;27753;55.724;37.612;2022-09-09T03:17:58;7.30;88.10
42095;DHT22;27753;55.724;37.612;2022-09-09T03:20:25;6.90;89.90
42095;DHT22;27753;55.724;37.612;2022-09-09T03:22:52;6.90;90.00
42095;DHT22;27753;55.724;37.612;2022-09-09T03:27:45;6.90;90.10
42095;DHT22;27753;55.724;37.612;2022-09-09T03:30:11;6.80;90.10
42095;DHT22;27753;55.724;37.612;2022-09-09T03:32:37;6.80;90.40
42095;DHT22;27753;55.724;37.612;2022-09-09T03:35:03;6.80;90.50
42095;DHT22;27753;55.724;37.612;2022-09-09T03:37:29;6.90;90.60
42095;DHT22;27753;55.724;37.612;2022-09-09T03:39:55;6.90;90.50
42095;DHT22;27753;55.724;37.612;2022-09-09T03:42:21;7.00;90.50
42095;DHT22;27753;55.724;37.612;2022-09-09T03:44:48;7.10;90.50
42095;DHT22;27753;55.724;37.612;2022-09-09T03:47:20;7.20;90.50
42095;DHT22;27753;55.724;37.612;2022-09-09T03:49:47;7.30;90.40
42095;DHT22;27753;55.724;37.612;2022-09-09T03:52:14;7.30;90.30
42095;DHT22;27753;55.724;37.612;2022-09-09T03:54:41;7.40;90.20
42095;DHT22;27753;55.724;37.612;2022-09-09T03:57:10;7.50;90.10
42095;DHT22;27753;55.724;37.612;2022-09-09T03:59:36;7.50;89.90
42095;DHT22;27753;55.724;37.612;2022-09-09T04:02:02;7.60;89.70
42095;DHT22;27753;55.724;37.612;2022-09-09T04:04:28;7.60;89.40
42095;DHT22;27753;55.724;37.612;2022-09-09T04:06:54;7.70;89.30
42095;DHT22;27753;55.724;37.612;2022-09-09T04:09:20;7.70;89.30
42095;DHT22;27753;55.724;37.612;2022-09-09T04:11:46;7.80;89.30
42095;DHT22;27753;55.724;37.612;2022-09-09T04:14:12;7.80;89.20
42095;DHT22;27753;55.724;37.612;2022-09-09T04:16:38;7.90;90.10
42095;DHT22;27753;55.724;37.612;2022-09-09T04:19:04;8.20;89.80
42095;DHT22;27753;55.724;37.612;2022-09-09T04:21:32;8.60;87.80
42095;DHT22;27753;55.724;37.612;2022-09-09T04:23:58;9.20;86.50
42095;DHT22;27753;55.724;37.612;2022-09-09T04:26:24;9.70;84.40
42095;DHT22;27753;55.724;37.612;2022-09-09T04:28:50;10.30;82.20
42095;DHT22;27753;55.724;37.612;2022-09-09T04:31:20;10.90;79.70
42095;DHT22;27753;55.724;37.612;2022-09-09T04:33:48;11.50;76.80
42095;DHT22;27753;55.724;37.612;2022-09-09T04:36:15;12.00;74.70
42095;DHT22;27753;55.724;37.612;2022-09-09T04:38:41;12.40;73.40
42095;DHT22;27753;55.724;37.612;2022-09-09T04:41:07;12.80;71.00
42095;DHT22;27753;55.724;37.612;2022-09-09T04:43:33;13.20;70.00
42095;DHT22;27753;55.724;37.612;2022-09-09T04:46:00;13.60;67.70
42095;DHT22;27753;55.724;37.612;2022-09-09T04:48:25;13.50;67.20
42095;DHT22;27753;55.724;37.612;2022-09-09T04:50:57;12.80;66.50
42095;DHT22;27753;55.724;37.612;2022-09-09T04:53:26;11.90;68.30
42095;DHT22;27753;55.724;37.612;2022-09-09T04:56:13;11.10;70.90
42095;DHT22;27753;55.724;37.612;2022-09-09T04:58:43;10.30;73.40
42095;DHT22;27753;55.724;37.612;2022-09-09T05:03:38;9.50;76.50
42095;DHT22;27753;55.724;37.612;2022-09-09T05:06:12;9.30;77.90
42095;DHT22;27753;55.724;37.612;2022-09-09T05:08:39;9.10;78.70
42095;DHT22;27753;55.724;37.612;2022-09-09T05:11:23;9.00;79.30
42095;DHT22;27753;55.724;37.612;2022-09-09T05:13:50;8.80;80.40
42095;DHT22;27753;55.724;37.612;2022-09-09T05:16:17;8.80;80.30
42095;DHT22;27753;55.724;37.612;2022-09-09T05:18:44;8.70;80.60
42095;DHT22;27753;55.724;37.612;2022-09-09T05:21:13;8.70;81.20
42095;DHT22;27753;55.724;37.612;2022-09-09T05:23:39;8.60;81.60
42095;DHT22;27753;55.724;37.612;2022-09-09T05:26:07;8.60;81.70
42095;DHT22;27753;55.724;37.612;2022-09-09T05:28:35;8.60;81.60
42095;DHT22;27753;55.724;37.612;2022-09-09T05:31:04;8.70;81.80
42095;DHT22;27753;55.724;37.612;2022-09-09T05:33:31;8.70;81.40
42095;DHT22;27753;55.724;37.612;2022-09-09T05:36:04;8.70;81.80
42095;DHT22;27753;55.724;37.612;2022-09-09T05:38:31;8.70;81.10
42095;DHT22;27753;55.724;37.612;2022-09-09T05:40:58;8.70;80.60
42095;DHT22;27753;55.724;37.612;2022-09-09T05:43:25;8.70;80.50
42095;DHT22;27753;55.724;37.612;2022-09-09T05:46:04;8.70;80.70
42095;DHT22;27753;55.724;37.612;2022-09-09T05:48:34;8.70;80.50
42095;DHT22;27753;55.724;37.612;2022-09-09T05:51:01;8.80;80.90
42095;DHT22;27753;55.724;37.612;2022-09-09T05:53:30;8.80;80.40
42095;DHT22;27753;55.724;37.612;2022-09-09T05:58:29;8.90;80.00
42095;DHT22;27753;55.724;37.612;2022-09-09T06:01:22;9.00;79.90
42095;DHT22;27753;55.724;37.612;2022-09-09T06:03:49;9.20;79.70
42095;DHT22;27753;55.724;37.612;2022-09-09T06:06:17;10.10;79.50
42095;DHT22;27753;55.724;37.612;2022-09-09T06:08:47;12.00;74.70
42095;DHT22;27753;55.724;37.612;2022-09-09T06:13:40;13.40;67.40
42095;DHT22;27753;55.724;37.612;2022-09-09T06:16:11;15.00;60.40
42095;DHT22;27753;55.724;37.612;2022-09-09T06:21:06;16.30;57.20
42095;DHT22;27753;55.724;37.612;2022-09-09T06:23:33;16.90;55.90
42095;DHT22;27753;55.724;37.612;2022-09-09T06:26:09;17.30;53.30
42095;DHT22;27753;55.724;37.612;2022-09-09T06:28:36;17.30;52.50
42095;DHT22;27753;55.724;37.612;2022-09-09T06:31:07;16.70;52.40
42095;DHT22;27753;55.724;37.612;2022-09-09T06:33:35;15.40;54.60
42095;DHT22;27753;55.724;37.612;2022-09-09T06:36:12;14.20;58.10
42095;DHT22;27753;55.724;37.612;2022-09-09T06:38:39;13.30;60.20
42095;DHT22;27753;55.724;37.612;2022-09-09T06:41:12;12.80;61.10
42095;DHT22;27753;55.724;37.612;2022-09-09T06:43:40;12.40;61.50
42095;DHT22;27753;55.724;37.612;2022-09-09T06:46:13;12.00;62.30
42095;DHT22;27753;55.724;37.612;2022-09-09T06:48:40;11.70;63.10
42095;DHT22;27753;55.724;37.612;2022-09-09T06:53:39;11.50;64.80
42095;DHT22;27753;55.724;37.612;2022-09-09T06:59:16;12.30;63.80
42095;DHT22;27753;55.724;37.612;2022-09-09T07:01:51;13.70;61.70
42095;DHT22;27753;55.724;37.612;2022-09-09T07:04:20;15.60;57.40
42095;DHT22;27753;55.724;37.612;2022-09-09T07:06:46;16.60;53.30
42095;DHT22;27753;55.724;37.612;2022-09-09T07:09:15;17.00;51.90
42095;DHT22;27753;55.724;37.612;2022-09-09T07:12:04;18.20;51.40
42095;DHT22;27753;55.724;37.612;2022-09-09T07:14:32;20.30;48.40
42095;DHT22;27753;55.724;37.612;2022-09-09T07:17:06;21.40;43.20
42095;DHT22;27753;55.724;37.612;2022-09-09T07:19:33;22.10;41.30
42095;DHT22;27753;55.724;37.612;2022-09-09T07:22:01;21.90;40.80
42095;DHT22;27753;55.724;37.612;2022-09-09T07:24:29;21.20;41.30
42095;DHT22;27753;55.724;37.612;2022-09-09T07:26:57;21.10;42.70
42095;DHT22;27753;55.724;37.612;2022-09-09T07:29:25;21.00;41.30
42095;DHT22;27753;55.724;37.612;2022-09-09T07:31:51;20.20;42.30
42095;DHT22;27753;55.724;37.612;2022-09-09T07:34:22;19.40;42.90
42095;DHT22;27753;55.724;37.612;2022-09-09T07:36:48;18.60;44.20
42095;DHT22;27753;55.724;37.612;2022-09-09T07:39:15;18.80;44.70
42095;DHT22;27753;55.724;37.612;2022-09-09T07:41:48;19.10;43.90
42095;DHT22;27753;55.724;37.612;2022-09-09T07:44:41;18.90;43.10
42095;DHT22;27753;55.724;37.612;2022-09-09T07:47:39;18.00;43.90
42095;DHT22;27753;55.724;37.612;2022-09-09T07:50:08;16.90;46.00
42095;DHT22;27753;55.724;37.612;2022-09-09T07:52:35;16.10;47.10
42095;DHT22;27753;55.724;37.612;2022-09-09T07:55:02;15.40;47.40
42095;DHT22;27753;55.724;37.612;2022-09-09T07:57:30;15.00;48.80
42095;DHT22;27753;55.724;37.612;2022-09-09T07:59:57;14.60;49.00
42095;DHT22;27753;55.724;37.612;2022-09-09T08:02:24;14.30;49.80
42095;DHT22;27753;55.724;37.612;2022-09-09T08:05:05;14.20;50.80
42095;DHT22;27753;55.724;37.612;2022-09-09T08:07:32;14.30;52.00
42095;DHT22;27753;55.724;37.612;2022-09-09T08:09:58;14.50;52.60
42095;DHT22;27753;55.724;37.612;2022-09-09T08:12:24;14.70;52.50
42095;DHT22;27753;55.724;37.612;2022-09-09T08:14:50;14.70;52.40
42095;DHT22;27753;55.724;37.612;2022-09-09T08:17:17;14.60;52.70
42095;DHT22;27753;55.724;37.612;2022-09-09T08:19:43;14.70;52.60
42095;DHT22;27753;55.724;37.612;2022-09-09T08:22:09;14.80;52.30
42095;DHT22;27753;55.724;37.612;2022-09-09T08:24:37;14.90;52.20
42095;DHT22;27753;55.724;37.612;2022-09-09T08:27:02;16.40;51.90
42095;DHT22;27753;55.724;37.612;2022-09-09T08:29:28;18.80;48.30
42095;DHT22;27753;55.724;37.612;2022-09-09T08:31:57;20.50;43.60
42095;DHT22;27753;55.724;37.612;2022-09-09T08:34:24;20.40;42.30
42095;DHT22;27753;55.724;37.612;2022-09-09T08:36:52;21.10;42.00
42095;DHT22;27753;55.724;37.612;2022-09-09T08:39:21;22.60;39.70
42095;DHT22;27753;55.724;37.612;2022-09-09T08:42:13;23.20;37.50
42095;DHT22;27753;55.724;37.612;2022-09-09T08:45:13;22.00;38.80
42095;DHT22;27753;55.724;37.612;2022-09-09T08:50:25;18.90;41.50
42095;DHT22;27753;55.724;37.612;2022-09-09T08:57:53;17.50;45.30
42095;DHT22;27753;55.724;37.612;2022-09-09T09:00:21;19.00;44.70
42095;DHT22;27753;55.724;37.612;2022-09-09T09:08:40;22.60;37.40
42095;DHT22;27753;55.724;37.612;2022-09-09T09:11:09;21.20;39.40
42095;DHT22;27753;55.724;37.612;2022-09-09T09:18:39;17.10;45.80
42095;DHT22;27753;55.724;37.612;2022-09-09T09:21:15;16.40;46.40
42095;DHT22;27753;55.724;37.612;2022-09-09T09:23:58;15.80;47.50
42095;DHT22;27753;55.724;37.612;2022-09-09T09:26:30;15.40;48.60
42095;DHT22;27753;55.724;37.612;2022-09-09T09:28:59;16.50;48.20
42095;DHT22;27753;55.724;37.612;2022-09-09T09:31:26;17.50;46.70
42095;DHT22;27753;55.724;37.612;2022-09-09T09:33:56;19.80;43.40
42095;DHT22;27753;55.724;37.612;2022-09-09T09:36:39;22.40;39.60
42095;DHT22;27753;55.724;37.612;2022-09-09T09:39:06;23.60;37.50
42095;DHT22;27753;55.724;37.612;2022-09-09T09:41:40;22.40;36.90
42095;DHT22;27753;55.724;37.612;2022-09-09T09:44:31;21.20;39.50
42095;DHT22;27753;55.724;37.612;2022-09-09T09:49:38;18.90;42.10
42095;DHT22;27753;55.724;37.612;2022-09-09T09:52:05;17.70;44.00
42095;DHT22;27753;55.724;37.612;2022-09-09T09:54:33;16.70;46.00
42095;DHT22;27753;55.724;37.612;2022-09-09T09:59:36;16.00;47.80
42095;DHT22;27753;55.724;37.612;2022-09-09T10:02:17;16.00;47.80
42095;DHT22;27753;55.724;37.612;2022-09-09T10:04:43;16.30;47.50
42095;DHT22;27753;55.724;37.612;2022-09-09T10:07:22;17.40;47.00
42095;DHT22;27753;55.724;37.612;2022-09-09T10:12:24;21.90;42.40
42095;DHT22;27753;55.724;37.612;2022-09-09T10:15:32;23.40;38.00
42095;DHT22;27753;55.724;37.612;2022-09-09T10:32:36;18.50;43.60
42095;DHT22;27753;55.724;37.612;2022-09-09T10:40:41;15.90;47.90
42095;DHT22;27753;55.724;37.612;2022-09-09T10:54:26;14.40;49.90
42095;DHT22;27753;55.724;37.612;2022-09-09T10:57:00;14.40;50.10
42095;DHT22;27753;55.724;37.612;2022-09-09T10:59:33;14.50;50.50
42095;DHT22;27753;55.724;37.612;2022-09-09T11:04:50;14.50;51.00
42095;DHT22;27753;55.724;37.612;2022-09-09T11:08:27;14.50;51.70
42095;DHT22;27753;55.724;37.612;2022-09-09T11:10:53;14.40;51.70
42095;DHT22;27753;55.724;37.612;2022-09-09T11:13:33;14.30;51.70
42095;DHT22;27753;55.724;37.612;2022-09-09T11:16:24;14.20;52.00
42095;DHT22;27753;55.724;37.612;2022-09-09T11:19:03;14.20;51.60
42095;DHT22;27753;55.724;37.612;2022-09-09T11:21:40;14.20;52.10
42095;DHT22;27753;55.724;37.612;2022-09-09T11:24:11;14.30;52.20
42095;DHT22;27753;55.724;37.612;2022-09-09T11:26:59;14.30;51.70
42095;DHT22;27753;55.724;37.612;2022-09-09T11:33:07;14.20;51.70
42095;DHT22;27753;55.724;37.612;2022-09-09T11:38:26;14.50;51.70
42095;DHT22;27753;55.724;37.612;2022-09-09T11:41:02;14.50;50.80
42095;DHT22;27753;55.724;37.612;2022-09-09T11:43:31;14.50;50.50
42095;DHT22;27753;55.724;37.612;2022-09-09T11:46:01;14.30;50.90
42095;DHT22;27753;55.724;37.612;2022-09-09T11:48:42;14.20;51.90
42095;DHT22;27753;55.724;37.612;2022-09-09T11:58:57;14.20;52.00
42095;DHT22;27753;55.724;37.612;2022-09-09T12:01:38;14.10;51.40
42095;DHT22;27753;55.724;37.612;2022-09-09T12:06:51;13.70;51.70
42095;DHT22;27753;55.724;37.612;2022-09-09T12:09:22;13.50;51.90
42095;DHT22;27753;55.724;37.612;2022-09-09T12:11:52;13.30;52.60
42095;DHT22;27753;55.724;37.612;2022-09-09T12:14:22;13.30;53.10
42095;DHT22;27753;55.724;37.612;2022-09-09T12:16:48;13.40;53.50
42095;DHT22;27753;55.724;37.612;2022-09-09T12:19:21;13.60;53.40
42095;DHT22;27753;55.724;37.612;2022-09-09T12:22:06;13.80;53.50
42095;DHT22;27753;55.724;37.612;2022-09-09T12:27:36;14.30;52.60
42095;DHT22;27753;55.724;37.612;2022-09-09T12:30:11;14.50;51.80
42095;DHT22;27753;55.724;37.612;2022-09-09T12:32:40;14.60;50.50
42095;DHT22;27753;55.724;37.612;2022-09-09T12:35:24;14.70;49.60
42095;DHT22;27753;55.724;37.612;2022-09-09T12:38:02;14.60;49.40
42095;DHT22;27753;55.724;37.612;2022-09-09T12:40:34;14.40;49.80
42095;DHT22;27753;55.724;37.612;2022-09-09T12:43:22;14.30;50.40
42095;DHT22;27753;55.724;37.612;2022-09-09T12:45:57;14.30;50.00
42095;DHT22;27753;55.724;37.612;2022-09-09T12:48:39;14.20;50.00
42095;DHT22;27753;55.724;37.612;2022-09-09T12:51:26;14.20;50.20
42095;DHT22;27753;55.724;37.612;2022-09-09T12:53:53;14.20;50.20
42095;DHT22;27753;55.724;37.612;2022-09-09T12:56:21;14.20;50.60
42095;DHT22;27753;55.724;37.612;2022-09-09T12:58:50;14.30;50.80
42095;DHT22;27753;55.724;37.612;2022-09-09T13:01:31;14.50;51.10
42095;DHT22;27753;55.724;37.612;2022-09-09T13:03:59;14.60;50.90
42095;DHT22;27753;55.724;37.612;2022-09-09T13:06:30;14.60;51.30
42095;DHT22;27753;55.724;37.612;2022-09-09T13:08:59;14.70;50.70
42095;DHT22;27753;55.724;37.612;2022-09-09T13:11:40;14.60;50.80
42095;DHT22;27753;55.724;37.612;2022-09-09T13:14:25;14.60;50.90
42095;DHT22;27753;55.724;37.612;2022-09-09T13:16:59;14.70;49.80
42095;DHT22;27753;55.724;37.612;2022-09-09T13:19:26;14.60;49.60
42095;DHT22;27753;55.724;37.612;2022-09-09T13:21:55;14.50;50.00
42095;DHT22;27753;55.724;37.612;2022-09-09T13:24:33;14.40;50.00
42095;DHT22;27753;55.724;37.612;2022-09-09T13:27:05;14.40;50.30
42095;DHT22;27753;55.724;37.612;2022-09-09T13:29:52;14.30;50.60
42095;DHT22;27753;55.724;37.612;2022-09-09T13:32:23;14.20;50.80
42095;DHT22;27753;55.724;37.612;2022-09-09T13:34:58;14.10;51.10
42095;DHT22;27753;55.724;37.612;2022-09-09T13:37:43;14.00;51.40
42095;DHT22;27753;55.724;37.612;2022-09-09T13:40:21;13.90;51.70
42095;DHT22;27753;55.724;37.612;2022-09-09T13:42:50;14.00;51.90
42095;DHT22;27753;55.724;37.612;2022-09-09T13:45:26;14.20;51.70
42095;DHT22;27753;55.724;37.612;2022-09-09T13:47:53;14.20;51.30
42095;DHT22;27753;55.724;37.612;2022-09-09T13:50:23;14.30;51.20
42095;DHT22;27753;55.724;37.612;2022-09-09T13:52:52;14.40;51.20
42095;DHT22;27753;55.724;37.612;2022-09-09T13:55:20;14.40;51.20
42095;DHT22;27753;55.724;37.612;2022-09-09T13:57:56;14.20;51.00
42095;DHT22;27753;55.724;37.612;2022-09-09T14:00:23;14.00;50.90
42095;DHT22;27753;55.724;37.612;2022-09-09T14:03:09;13.80;51.60
42095;DHT22;27753;55.724;37.612;2022-09-09T14:05:36;13.80;52.10
42095;DHT22;27753;55.724;37.612;2022-09-09T14:08:06;13.70;52.30
42095;DHT22;27753;55.724;37.612;2022-09-09T14:10:33;13.60;52.60
42095;DHT22;27753;55.724;37.612;2022-09-09T14:13:01;13.40;52.80
42095;DHT22;27753;55.724;37.612;2022-09-09T14:15:27;13.30;53.60
42095;DHT22;27753;55.724;37.612;2022-09-09T14:17:54;13.30;54.00
42095;DHT22;27753;55.724;37.612;2022-09-09T14:20:20;13.20;54.10
42095;DHT22;27753;55.724;37.612;2022-09-09T14:22:46;13.10;54.20
42095;DHT22;27753;55.724;37.612;2022-09-09T14:25:12;12.90;54.60
42095;DHT22;27753;55.724;37.612;2022-09-09T14:27:41;12.80;54.80
42095;DHT22;27753;55.724;37.612;2022-09-09T14:30:08;12.70;54.80
42095;DHT22;27753;55.724;37.612;2022-09-09T14:32:35;12.60;54.20
42095;DHT22;27753;55.724;37.612;2022-09-09T14:35:01;12.50;54.50
42095;DHT22;27753;55.724;37.612;2022-09-09T14:37:28;12.40;54.70
42095;DHT22;27753;55.724;37.612;2022-09-09T14:39:57;12.30;55.00
42095;DHT22;27753;55.724;37.612;2022-09-09T14:42:22;12.30;54.60
42095;DHT22;27753;55.724;37.612;2022-09-09T14:44:49;12.20;54.60
42095;DHT22;27753;55.724;37.612;2022-09-09T14:47:14;12.10;54.80
42095;DHT22;27753;55.724;37.612;2022-09-09T14:49:40;12.10;55.00
42095;DHT22;27753;55.724;37.612;2022-09-09T14:52:06;12.10;55.30
42095;DHT22;27753;55.724;37.612;2022-09-09T14:54:35;12.10;55.50
42095;DHT22;27753;55.724;37.612;2022-09-09T14:57:03;12.20;55.70
42095;DHT22;27753;55.724;37.612;2022-09-09T14:59:29;12.20;56.10
42095;DHT22;27753;55.724;37.612;2022-09-09T15:01:54;12.20;56.60
42095;DHT22;27753;55.724;37.612;2022-09-09T15:04:20;12.20;56.60
42095;DHT22;27753;55.724;37.612;2022-09-09T15:06:47;12.30;56.50
42095;DHT22;27753;55.724;37.612;2022-09-09T15:09:14;12.30;56.60
42095;DHT22;27753;55.724;37.612;2022-09-09T15:11:41;12.40;56.30
42095;DHT22;27753;55.724;37.612;2022-09-09T15:14:08;12.40;56.10
42095;DHT22;27753;55.724;37.612;2022-09-09T15:16:35;12.30;55.90
42095;DHT22;27753;55.724;37.612;2022-09-09T15:19:02;12.30;55.90
42095;DHT22;27753;55.724;37.612;2022-09-09T15:21:30;12.40;56.10
42095;DHT22;27753;55.724;37.612;2022-09-09T15:23:57;12.40;56.20
42095;DHT22;27753;55.724;37.612;2022-09-09T15:26:23;12.40;56.30
42095;DHT22;27753;55.724;37.612;2022-09-09T15:28:50;12.40;56.50
42095;DHT22;27753;55.724;37.612;2022-09-09T15:31:17;12.50;56.60
42095;DHT22;27753;55.724;37.612;2022-09-09T15:33:49;12.40;56.70
42095;DHT22;27753;55.724;37.612;2022-09-09T15:36:18;12.40;56.40
42095;DHT22;27753;55.724;37.612;2022-09-09T15:38:44;12.30;56.70
42095;DHT22;27753;55.724;37.612;2022-09-09T15:41:12;12.20;57.00
42095;DHT22;27753;55.724;37.612;2022-09-09T15:43:42;12.10;57.10
42095;DHT22;27753;55.724;37.612;2022-09-09T15:51:30;11.90;57.60
42095;DHT22;27753;55.724;37.612;2022-09-09T15:53:57;11.80;57.70
42095;DHT22;27753;55.724;37.612;2022-09-09T15:56:25;11.80;58.00
42095;DHT22;27753;55.724;37.612;2022-09-09T15:58:53;11.70;58.20
42095;DHT22;27753;55.724;37.612;2022-09-09T16:01:20;11.70;58.60
42095;DHT22;27753;55.724;37.612;2022-09-09T16:03:47;11.70;58.30
42095;DHT22;27753;55.724;37.612;2022-09-09T16:06:17;11.60;58.50
42095;DHT22;27753;55.724;37.612;2022-09-09T16:08:45;11.50;58.50
42095;DHT22;27753;55.724;37.612;2022-09-09T16:11:25;11.50;58.90
42095;DHT22;27753;55.724;37.612;2022-09-09T16:13:54;11.50;58.90
42095;DHT22;27753;55.724;37.612;2022-09-09T16:16:23;11.40;59.20
42095;DHT22;27753;55.724;37.612;2022-09-09T16:18:52;11.40;59.40
42095;DHT22;27753;55.724;37.612;2022-09-09T16:23:52;11.40;59.90
42095;DHT22;27753;55.724;37.612;2022-09-09T16:26:19;11.40;60.00
42095;DHT22;27753;55.724;37.612;2022-09-09T16:28:46;11.30;60.20
42095;DHT22;27753;55.724;37.612;2022-09-09T16:31:23;11.30;60.50
42095;DHT22;27753;55.724;37.612;2022-09-09T16:33:49;11.20;60.80
42095;DHT22;27753;55.724;37.612;2022-09-09T16:36:24;11.30;60.80
42095;DHT22;27753;55.724;37.612;2022-09-09T16:38:59;11.20;60.90
42095;DHT22;27753;55.724;37.612;2022-09-09T16:41:26;11.20;60.90
42095;DHT22;27753;55.724;37.612;2022-09-09T16:43:58;11.20;61.10
42095;DHT22;27753;55.724;37.612;2022-09-09T16:46:26;11.10;61.40
42095;DHT22;27753;55.724;37.612;2022-09-09T16:48:53;11.00;61.70
42095;DHT22;27753;55.724;37.612;2022-09-09T16:51:23;11.00;61.60
42095;DHT22;27753;55.724;37.612;2022-09-09T16:53:50;10.90;61.80
42095;DHT22;27753;55.724;37.612;2022-09-09T16:56:18;11.00;61.90
42095;DHT22;27753;55.724;37.612;2022-09-09T16:58:50;11.00;62.00
42095;DHT22;27753;55.724;37.612;2022-09-09T17:01:16;11.00;61.90
42095;DHT22;27753;55.724;37.612;2022-09-09T17:03:42;11.00;62.20
42095;DHT22;27753;55.724;37.612;2022-09-09T17:06:13;10.90;62.30
42095;DHT22;27753;55.724;37.612;2022-09-09T17:08:39;10.90;62.50
42095;DHT22;27753;55.724;37.612;2022-09-09T17:11:18;10.90;62.60
42095;DHT22;27753;55.724;37.612;2022-09-09T17:13:45;10.90;62.60
42095;DHT22;27753;55.724;37.612;2022-09-09T17:16:12;10.90;62.70
42095;DHT22;27753;55.724;37.612;2022-09-09T17:18:38;10.80;62.40
42095;DHT22;27753;55.724;37.612;2022-09-09T17:21:07;10.70;63.10
42095;DHT22;27753;55.724;37.612;2022-09-09T17:23:36;10.80;63.10
42095;DHT22;27753;55.724;37.612;2022-09-09T17:26:08;10.70;63.10
42095;DHT22;27753;55.724;37.612;2022-09-09T17:28:36;10.70;63.10
42095;DHT22;27753;55.724;37.612;2022-09-09T17:31:05;10.70;63.40
42095;DHT22;27753;55.724;37.612;2022-09-09T17:33:38;10.70;63.40
42095;DHT22;27753;55.724;37.612;2022-09-09T17:36:14;10.70;63.50
42095;DHT22;27753;55.724;37.612;2022-09-09T17:38:41;10.70;63.50
42095;DHT22;27753;55.724;37.612;2022-09-09T17:41:09;10.60;63.50
42095;DHT22;27753;55.724;37.612;2022-09-09T17:43:37;10.60;63.20
42095;DHT22;27753;55.724;37.612;2022-09-09T17:46:12;10.50;63.70
42095;DHT22;27753;55.724;37.612;2022-09-09T17:48:39;10.40;64.10
42095;DHT22;27753;55.724;37.612;2022-09-09T17:51:06;10.50;64.30
42095;DHT22;27753;55.724;37.612;2022-09-09T17:53:40;10.50;64.30
42095;DHT22;27753;55.724;37.612;2022-09-09T17:56:14;10.50;64.30
42095;DHT22;27753;55.724;37.612;2022-09-09T17:58:40;10.50;64.40
42095;DHT22;27753;55.724;37.612;2022-09-09T18:01:09;10.50;64.80
42095;DHT22;27753;55.724;37.612;2022-09-09T18:03:40;10.50;64.80
42095;DHT22;27753;55.724;37.612;2022-09-09T18:06:18;10.40;65.10
42095;DHT22;27753;55.724;37.612;2022-09-09T18:08:51;10.30;65.20
42095;DHT22;27753;55.724;37.612;2022-09-09T18:11:18;10.30;65.30
42095;DHT22;27753;55.724;37.612;2022-09-09T18:13:49;10.30;65.50
42095;DHT22;27753;55.724;37.612;2022-09-09T18:16:16;10.40;65.30
42095;DHT22;27753;55.724;37.612;2022-09-09T18:18:44;10.30;65.30
42095;DHT22;27753;55.724;37.612;2022-09-09T18:21:15;10.30;65.20
42095;DHT22;27753;55.724;37.612;2022-09-09T18:23:45;10.30;65.30
42095;DHT22;27753;55.724;37.612;2022-09-09T18:26:21;10.30;65.40